createdAt,value
2023-08-07T00:00:11.496Z,86.20
2023-08-07T00:02:38.598Z,86.20
2023-08-07T00:05:06.719Z,86.20
2023-08-07T00:07:33.737Z,86.10
2023-08-07T00:10:02.269Z,86.10
2023-08-07T00:12:30.671Z,86.00
2023-08-07T00:14:57.660Z,85.90
2023-08-07T00:17:24.714Z,85.80
2023-08-07T00:19:51.877Z,85.80
2023-08-07T00:22:18.900Z,85.80
2023-08-07T00:24:45.915Z,85.60
2023-08-07T00:27:13.415Z,85.50
2023-08-07T00:29:41.902Z,85.40
2023-08-07T00:32:09.738Z,85.40
2023-08-07T00:34:36.706Z,85.30
2023-08-07T00:37:04.126Z,85.30
2023-08-07T00:39:31.127Z,85.20
2023-08-07T00:41:58.306Z,85.10
2023-08-07T00:44:25.661Z,85.10
2023-08-07T00:46:55.187Z,85.10
2023-08-07T00:49:22.881Z,85.10
2023-08-07T00:51:50.200Z,85.10
2023-08-07T00:54:20.595Z,85.10
2023-08-07T00:56:47.998Z,85.30
2023-08-07T00:59:16.039Z,85.20
2023-08-07T01:01:43.324Z,85.20
2023-08-07T01:04:12.002Z,85.30
2023-08-07T01:06:38.991Z,85.30
2023-08-07T01:09:06.055Z,85.40
2023-08-07T01:11:40.836Z,85.30
2023-08-07T01:14:14.719Z,85.40
2023-08-07T01:16:46.925Z,85.40
2023-08-07T01:19:24.585Z,85.40
2023-08-07T01:22:06.484Z,85.20
2023-08-07T01:24:33.942Z,85.20
2023-08-07T01:27:11.123Z,85.10
2023-08-07T01:29:45.369Z,85.10
2023-08-07T01:32:17.389Z,85.10
2023-08-07T01:34:46.284Z,85.10
2023-08-07T01:37:15.143Z,85.30
2023-08-07T01:39:43.257Z,85.50
2023-08-07T01:42:11.151Z,85.30
2023-08-07T01:44:38.576Z,85.50
2023-08-07T01:47:06.381Z,85.60
2023-08-07T01:49:33.580Z,85.50
2023-08-07T01:52:00.536Z,85.80
2023-08-07T01:54:29.004Z,85.90
2023-08-07T01:56:56.514Z,85.70
2023-08-07T01:59:24.039Z,85.80
2023-08-07T02:01:51.158Z,85.70
2023-08-07T02:04:18.726Z,85.70
2023-08-07T02:06:45.739Z,85.70
2023-08-07T02:09:12.735Z,85.60
2023-08-07T02:11:41.289Z,85.50
2023-08-07T02:14:08.458Z,85.60
2023-08-07T02:16:35.539Z,85.50
2023-08-07T02:19:02.527Z,85.40
2023-08-07T02:21:29.522Z,85.40
2023-08-07T02:23:56.666Z,85.40
2023-08-07T02:26:23.827Z,85.30
2023-08-07T02:28:52.156Z,85.30
2023-08-07T02:31:19.114Z,85.20
2023-08-07T02:33:46.142Z,85.10
2023-08-07T02:36:13.083Z,85.00
2023-08-07T02:38:40.071Z,85.00
2023-08-07T02:41:07.012Z,85.00
2023-08-07T02:43:35.552Z,84.90
2023-08-07T02:46:03.934Z,84.80
2023-08-07T02:48:30.953Z,84.80
2023-08-07T02:50:58.153Z,84.70
2023-08-07T02:53:25.097Z,84.60
2023-08-07T02:55:52.115Z,84.60
2023-08-07T02:58:19.218Z,84.60
2023-08-07T03:00:46.500Z,84.50
2023-08-07T03:03:14.881Z,84.60
2023-08-07T03:05:50.012Z,84.50
2023-08-07T03:08:17.211Z,84.50
2023-08-07T03:10:50.401Z,84.50
2023-08-07T03:13:17.710Z,84.60
2023-08-07T03:15:44.831Z,84.50
2023-08-07T03:18:12.149Z,84.50
2023-08-07T03:20:40.936Z,84.50
2023-08-07T03:23:07.986Z,84.60
2023-08-07T03:25:35.116Z,84.60
2023-08-07T03:28:02.048Z,84.60
2023-08-07T03:30:29.322Z,84.60
2023-08-07T03:32:56.355Z,84.60
2023-08-07T03:35:23.341Z,84.70
2023-08-07T03:37:51.911Z,84.60
2023-08-07T03:40:18.862Z,84.60
2023-08-07T03:42:45.920Z,84.60
2023-08-07T03:45:13.050Z,84.70
2023-08-07T03:47:40.232Z,84.60
2023-08-07T03:50:08.237Z,84.70
2023-08-07T03:52:35.302Z,84.70
2023-08-07T03:55:04.298Z,84.70
2023-08-07T03:57:31.300Z,84.80
2023-08-07T03:59:59.170Z,84.80
2023-08-07T04:02:26.569Z,84.90
2023-08-07T04:04:53.585Z,85.00
2023-08-07T04:07:20.692Z,85.10
2023-08-07T04:09:47.630Z,85.10
2023-08-07T04:12:16.168Z,85.10
2023-08-07T04:14:43.053Z,85.20
2023-08-07T04:17:10.124Z,85.20
2023-08-07T04:19:37.104Z,85.10
2023-08-07T04:22:04.491Z,85.20
2023-08-07T04:24:31.525Z,85.30
2023-08-07T04:26:58.557Z,85.30
2023-08-07T04:29:26.988Z,85.40
2023-08-07T04:31:54.052Z,85.40
2023-08-07T04:34:21.109Z,85.30
2023-08-07T04:36:48.210Z,85.30
2023-08-07T04:39:15.145Z,85.30
2023-08-07T04:41:42.430Z,85.50
2023-08-07T04:44:09.709Z,85.60
2023-08-07T04:46:38.034Z,85.50
2023-08-07T04:49:04.974Z,85.60
2023-08-07T04:51:32.382Z,85.50
2023-08-07T04:53:59.453Z,85.60
2023-08-07T04:56:26.548Z,85.70
2023-08-07T04:58:53.765Z,85.60
2023-08-07T05:01:20.993Z,85.70
2023-08-07T05:03:49.414Z,85.60
2023-08-07T05:06:16.530Z,85.50
2023-08-07T05:08:43.668Z,85.40
2023-08-07T05:11:10.603Z,85.50
2023-08-07T05:13:37.930Z,85.40
2023-08-07T05:16:05.069Z,85.40
2023-08-07T05:18:32.521Z,85.50
2023-08-07T05:21:00.946Z,85.40
2023-08-07T05:23:28.047Z,85.30
2023-08-07T05:25:55.134Z,85.20
2023-08-07T05:28:22.181Z,85.30
2023-08-07T05:30:49.254Z,85.10
2023-08-07T05:33:16.820Z,85.10
2023-08-07T05:35:44.070Z,85.10
2023-08-07T05:38:12.505Z,85.10
2023-08-07T05:40:39.809Z,85.10
2023-08-07T05:43:07.054Z,85.00
2023-08-07T05:45:34.112Z,84.90
2023-08-07T05:48:01.376Z,85.00
2023-08-07T05:50:28.469Z,85.00
2023-08-07T05:52:55.525Z,85.00
2023-08-07T05:55:23.983Z,85.00
2023-08-07T05:57:51.241Z,85.00
2023-08-07T06:00:20.583Z,84.90
2023-08-07T06:02:47.717Z,85.00
2023-08-07T06:05:16.222Z,85.10
2023-08-07T06:07:43.236Z,85.10
2023-08-07T06:10:10.531Z,85.00
2023-08-07T06:12:39.049Z,85.10
2023-08-07T06:15:06.969Z,85.10
2023-08-07T06:17:33.974Z,85.10
2023-08-07T06:20:01.111Z,85.20
2023-08-07T06:22:28.150Z,85.40
2023-08-07T06:24:55.153Z,85.50
2023-08-07T06:27:23.203Z,85.40
2023-08-07T06:29:51.800Z,85.60
2023-08-07T06:32:19.471Z,85.70
2023-08-07T06:34:47.608Z,85.50
2023-08-07T06:37:14.854Z,85.60
2023-08-07T06:39:41.851Z,85.60
2023-08-07T06:42:09.354Z,85.60
2023-08-07T06:44:36.448Z,85.70
2023-08-07T06:47:05.203Z,85.70
2023-08-07T06:49:34.247Z,85.40
2023-08-07T06:52:01.254Z,85.30
2023-08-07T06:54:28.212Z,85.40
2023-08-07T06:56:55.423Z,85.10
2023-08-07T06:59:22.579Z,84.70
2023-08-07T07:01:49.653Z,84.40
2023-08-07T07:04:18.248Z,84.00
2023-08-07T07:06:45.286Z,83.90
2023-08-07T07:09:17.094Z,83.60
2023-08-07T07:11:44.862Z,83.60
2023-08-07T07:14:12.106Z,83.50
2023-08-07T07:16:40.580Z,83.70
2023-08-07T07:19:09.655Z,83.90
2023-08-07T07:21:38.042Z,84.00
2023-08-07T07:24:05.833Z,84.30
2023-08-07T07:26:33.100Z,84.30
2023-08-07T07:29:00.241Z,84.20
2023-08-07T07:31:27.336Z,84.00
2023-08-07T07:33:54.742Z,83.30
2023-08-07T07:36:21.879Z,83.10
2023-08-07T07:38:50.837Z,82.50
2023-08-07T07:41:18.536Z,82.60
2023-08-07T07:43:45.646Z,82.00
2023-08-07T07:46:12.881Z,82.00
2023-08-07T07:48:40.104Z,81.20
2023-08-07T07:51:07.170Z,80.70
2023-08-07T07:53:34.552Z,80.80
2023-08-07T07:56:02.897Z,80.90
2023-08-07T07:58:29.934Z,80.90
2023-08-07T08:00:57.696Z,80.40
2023-08-07T08:03:27.518Z,79.40
2023-08-07T08:05:54.816Z,79.10
2023-08-07T08:08:21.860Z,79.30
2023-08-07T08:10:49.065Z,78.50
2023-08-07T08:13:17.833Z,77.20
2023-08-07T08:15:45.767Z,77.50
2023-08-07T08:18:13.063Z,76.30
2023-08-07T08:20:40.601Z,77.20
2023-08-07T08:23:07.658Z,77.40
2023-08-07T08:25:34.720Z,76.90
2023-08-07T08:28:01.877Z,76.10
2023-08-07T08:30:30.964Z,76.70
2023-08-07T08:32:58.072Z,76.00
2023-08-07T08:35:25.228Z,74.60
2023-08-07T08:37:52.190Z,75.30
2023-08-07T08:40:20.508Z,75.60
2023-08-07T08:42:47.921Z,75.60
2023-08-07T08:45:16.047Z,75.40
2023-08-07T08:47:45.985Z,74.40
2023-08-07T08:50:15.605Z,74.70
2023-08-07T08:52:47.874Z,75.10
2023-08-07T08:55:15.125Z,75.50
2023-08-07T08:57:43.044Z,74.40
2023-08-07T09:00:22.343Z,73.10
2023-08-07T09:02:52.207Z,73.30
2023-08-07T09:05:22.122Z,74.40
2023-08-07T09:07:50.132Z,73.80
2023-08-07T09:10:17.875Z,74.70
2023-08-07T09:12:54.410Z,74.70
2023-08-07T09:15:23.464Z,75.00
2023-08-07T09:17:53.806Z,75.00
2023-08-07T09:20:21.356Z,75.20
2023-08-07T09:22:48.331Z,75.80
2023-08-07T09:25:27.288Z,75.70
2023-08-07T09:27:56.041Z,75.10
2023-08-07T09:30:27.078Z,76.60
2023-08-07T09:32:57.462Z,76.70
2023-08-07T09:35:24.608Z,76.60
2023-08-07T09:37:51.828Z,76.90
2023-08-07T09:40:19.724Z,76.70
2023-08-07T09:42:53.348Z,76.80
2023-08-07T09:45:21.771Z,77.10
2023-08-07T09:48:00.285Z,76.70
2023-08-07T09:50:28.228Z,76.30
2023-08-07T09:52:56.789Z,75.80
2023-08-07T09:55:24.349Z,74.80
2023-08-07T09:57:52.030Z,74.20
2023-08-07T10:00:22.895Z,73.70
2023-08-07T10:02:51.288Z,72.80
2023-08-07T10:05:20.147Z,72.50
2023-08-07T10:07:48.473Z,72.60
2023-08-07T10:10:16.017Z,73.40
2023-08-07T10:12:47.003Z,72.90
2023-08-07T10:15:15.370Z,73.10
2023-08-07T10:17:42.639Z,74.10
2023-08-07T10:20:11.002Z,73.40
2023-08-07T10:22:41.012Z,73.60
2023-08-07T10:25:09.042Z,73.80
2023-08-07T10:27:38.447Z,73.70
2023-08-07T10:30:08.919Z,74.00
2023-08-07T10:32:37.959Z,74.20
2023-08-07T10:35:08.349Z,74.60
2023-08-07T10:37:42.255Z,74.80
2023-08-07T10:40:10.925Z,75.00
2023-08-07T10:43:01.357Z,75.50
2023-08-07T10:45:29.565Z,75.20
2023-08-07T10:48:04.184Z,75.40
2023-08-07T10:50:32.428Z,74.70
2023-08-07T10:53:03.566Z,75.10
2023-08-07T10:55:45.664Z,75.00
2023-08-07T10:58:24.572Z,74.50
2023-08-07T11:00:52.876Z,74.00
2023-08-07T11:03:29.213Z,74.70
2023-08-07T11:06:00.054Z,73.90
2023-08-07T11:08:30.800Z,73.80
2023-08-07T11:11:05.092Z,73.40
2023-08-07T11:13:32.362Z,72.80
2023-08-07T11:16:00.698Z,72.20
2023-08-07T11:18:27.748Z,72.00
2023-08-07T11:20:57.256Z,72.10
2023-08-07T11:23:25.613Z,72.10
2023-08-07T11:25:55.051Z,72.60
2023-08-07T11:28:23.264Z,71.50
2023-08-07T11:30:52.238Z,71.60
2023-08-07T11:33:19.928Z,72.20
2023-08-07T11:35:47.337Z,72.00
2023-08-07T11:38:29.560Z,71.10
2023-08-07T11:41:00.359Z,69.90
2023-08-07T11:43:30.154Z,70.10
2023-08-07T11:46:00.159Z,70.40
2023-08-07T11:48:28.630Z,68.70
2023-08-07T11:50:57.255Z,69.90
2023-08-07T11:53:25.393Z,69.50
2023-08-07T11:55:58.218Z,69.30
2023-08-07T11:58:27.910Z,69.00
2023-08-07T12:00:55.954Z,68.90
2023-08-07T12:03:28.215Z,68.30
2023-08-07T12:05:56.662Z,67.60
2023-08-07T12:08:23.981Z,67.20
2023-08-07T12:10:52.397Z,67.80
2023-08-07T12:13:24.903Z,67.80
2023-08-07T12:15:55.597Z,69.30
2023-08-07T12:18:24.113Z,68.50
2023-08-07T12:20:52.721Z,67.90
2023-08-07T12:23:22.311Z,67.90
2023-08-07T12:25:49.561Z,68.50
2023-08-07T12:28:18.497Z,67.50
2023-08-07T12:30:47.659Z,67.40
2023-08-07T12:33:16.094Z,66.90
2023-08-07T12:35:43.657Z,66.50
2023-08-07T12:38:11.517Z,66.00
2023-08-07T12:40:40.001Z,65.90
2023-08-07T12:43:08.645Z,66.00
2023-08-07T12:48:06.387Z,65.90
2023-08-07T12:50:35.141Z,67.10
2023-08-07T12:53:02.683Z,65.20
2023-08-07T12:55:30.884Z,65.50
2023-08-07T12:57:58.689Z,65.40
2023-08-07T13:00:26.791Z,65.90
2023-08-07T13:02:54.911Z,65.30
2023-08-07T13:05:23.350Z,63.90
2023-08-07T13:07:55.445Z,63.50
2023-08-07T13:10:23.760Z,63.20
2023-08-07T13:12:59.808Z,64.40
2023-08-07T13:15:27.418Z,62.80
2023-08-07T13:17:54.628Z,63.60
2023-08-07T13:20:22.942Z,62.70
2023-08-07T13:22:52.137Z,63.10
2023-08-07T13:25:19.280Z,61.10
2023-08-07T13:27:46.372Z,61.90
2023-08-07T13:30:14.972Z,63.10
2023-08-07T13:32:42.282Z,61.70
2023-08-07T13:35:10.413Z,61.70
2023-08-07T13:37:39.040Z,60.40
2023-08-07T13:40:09.935Z,62.10
2023-08-07T13:42:37.687Z,62.80
2023-08-07T13:45:05.179Z,62.00
2023-08-07T13:47:32.456Z,62.00
2023-08-07T13:49:59.848Z,62.60
2023-08-07T13:52:27.363Z,61.00
2023-08-07T13:54:55.377Z,60.70
2023-08-07T13:57:24.031Z,60.50
2023-08-07T13:59:51.577Z,60.50
2023-08-07T14:02:18.795Z,61.70
2023-08-07T14:04:46.613Z,61.80
2023-08-07T14:07:14.316Z,62.40
2023-08-07T14:09:41.561Z,63.60
2023-08-07T14:12:09.545Z,62.70
2023-08-07T14:14:37.942Z,64.00
2023-08-07T14:17:05.546Z,63.70
2023-08-07T14:19:32.796Z,64.10
2023-08-07T14:21:59.917Z,63.90
2023-08-07T14:24:27.196Z,62.80
2023-08-07T14:26:54.264Z,63.20
2023-08-07T14:29:21.382Z,62.50
2023-08-07T14:31:49.862Z,63.10
2023-08-07T14:34:17.154Z,63.20
2023-08-07T14:36:44.278Z,63.60
2023-08-07T14:39:11.432Z,63.40
2023-08-07T14:41:38.652Z,62.80
2023-08-07T14:44:05.656Z,63.90
2023-08-07T14:46:32.649Z,63.80
2023-08-07T14:49:01.280Z,64.30
2023-08-07T14:51:28.270Z,64.20
2023-08-07T14:53:55.317Z,64.90
2023-08-07T14:56:23.100Z,65.30
2023-08-07T14:58:50.208Z,65.50
2023-08-07T15:01:17.502Z,66.10
2023-08-07T15:03:44.487Z,66.50
2023-08-07T15:06:13.094Z,67.30
2023-08-07T15:08:40.094Z,67.70
2023-08-07T15:11:07.312Z,68.10
2023-08-07T15:13:34.396Z,68.30
2023-08-07T15:16:01.683Z,68.80
2023-08-07T15:18:28.788Z,69.10
2023-08-07T15:20:55.952Z,69.50
2023-08-07T15:23:24.471Z,69.90
2023-08-07T15:25:51.504Z,70.50
2023-08-07T15:28:18.600Z,70.30
2023-08-07T15:30:50.299Z,70.50
2023-08-07T15:33:18.541Z,71.00
2023-08-07T15:35:45.806Z,70.70
2023-08-07T15:38:12.928Z,71.40
2023-08-07T15:40:42.290Z,71.70
2023-08-07T15:43:11.135Z,71.40
2023-08-07T15:45:38.657Z,70.70
2023-08-07T15:48:06.749Z,71.20
2023-08-07T15:50:37.938Z,71.10
2023-08-07T15:53:05.533Z,70.80
2023-08-07T15:55:35.090Z,71.10
2023-08-07T15:58:04.163Z,71.10
2023-08-07T16:00:34.979Z,70.90
2023-08-07T16:03:02.952Z,71.30
2023-08-07T16:05:29.951Z,71.90
2023-08-07T16:07:57.063Z,71.50
2023-08-07T16:10:26.280Z,71.00
2023-08-07T16:12:54.084Z,71.00
2023-08-07T16:15:23.615Z,70.70
2023-08-07T16:17:51.077Z,70.60
2023-08-07T16:20:18.471Z,70.60
2023-08-07T16:22:45.526Z,71.10
2023-08-07T16:25:12.730Z,71.00
2023-08-07T16:27:41.005Z,70.10
2023-08-07T16:30:08.917Z,69.70
2023-08-07T16:32:39.449Z,69.50
2023-08-07T16:35:07.639Z,68.60
2023-08-07T16:37:35.361Z,68.60
2023-08-07T16:40:02.681Z,68.20
2023-08-07T16:42:29.801Z,68.20
2023-08-07T16:44:56.757Z,68.30
2023-08-07T16:47:23.964Z,68.60
2023-08-07T16:49:52.731Z,68.50
2023-08-07T16:52:19.849Z,67.70
2023-08-07T16:54:49.483Z,68.00
2023-08-07T16:57:16.719Z,68.20
2023-08-07T16:59:43.729Z,68.20
2023-08-07T17:02:11.039Z,68.30
2023-08-07T17:04:39.065Z,68.20
2023-08-07T17:07:07.756Z,68.30
2023-08-07T17:09:35.295Z,67.70
2023-08-07T17:12:03.282Z,67.50
2023-08-07T17:14:30.534Z,67.60
2023-08-07T17:16:57.962Z,67.90
2023-08-07T17:19:25.230Z,67.90
2023-08-07T17:21:52.326Z,67.90
2023-08-07T17:24:20.931Z,68.10
2023-08-07T17:26:48.033Z,67.30
2023-08-07T17:29:15.390Z,68.00
2023-08-07T17:31:42.517Z,67.60
2023-08-07T17:34:09.645Z,67.80
2023-08-07T17:36:37.008Z,67.80
2023-08-07T17:39:04.484Z,67.70
2023-08-07T17:41:32.829Z,67.90
2023-08-07T17:43:59.903Z,67.80
2023-08-07T17:46:27.048Z,67.80
2023-08-07T17:48:54.061Z,68.30
2023-08-07T17:51:21.313Z,68.70
2023-08-07T17:53:48.706Z,68.60
2023-08-07T17:56:15.808Z,68.70
2023-08-07T17:58:44.364Z,68.90
2023-08-07T18:01:11.503Z,69.10
2023-08-07T18:03:38.578Z,69.00
2023-08-07T18:06:05.671Z,69.20
2023-08-07T18:08:33.963Z,69.10
2023-08-07T18:11:01.242Z,69.30
2023-08-07T18:13:28.280Z,69.50
2023-08-07T18:15:56.801Z,69.50
2023-08-07T18:18:23.955Z,69.70
2023-08-07T18:20:51.289Z,69.70
2023-08-07T18:23:18.778Z,69.70
2023-08-07T18:25:45.999Z,69.80
2023-08-07T18:28:13.070Z,69.90
2023-08-07T18:30:40.221Z,69.90
2023-08-07T18:33:08.973Z,69.90
2023-08-07T18:35:36.298Z,70.20
2023-08-07T18:38:03.480Z,70.10
2023-08-07T18:40:30.472Z,70.10
2023-08-07T18:42:57.681Z,70.30
2023-08-07T18:45:25.057Z,70.40
2023-08-07T18:47:52.452Z,70.60
2023-08-07T18:50:21.210Z,70.70
2023-08-07T18:52:48.292Z,70.80
2023-08-07T18:55:15.458Z,70.80
2023-08-07T18:57:43.053Z,71.00
2023-08-07T19:00:10.931Z,71.20
2023-08-07T19:02:39.000Z,71.30
2023-08-07T19:05:07.838Z,71.40
2023-08-07T19:07:38.115Z,71.50
2023-08-07T19:10:07.068Z,71.60
2023-08-07T19:12:34.194Z,71.70
2023-08-07T19:15:02.462Z,71.80
2023-08-07T19:17:34.523Z,71.80
2023-08-07T19:20:01.676Z,72.00
2023-08-07T19:22:28.802Z,72.10
2023-08-07T19:24:58.757Z,72.30
2023-08-07T19:27:25.816Z,72.30
2023-08-07T19:29:54.720Z,72.40
2023-08-07T19:32:21.909Z,72.70
2023-08-07T19:34:49.060Z,73.00
2023-08-07T19:37:16.095Z,73.20
2023-08-07T19:39:43.328Z,73.40
2023-08-07T19:42:11.723Z,73.70
2023-08-07T19:44:39.025Z,74.00
2023-08-07T19:47:06.657Z,74.00
2023-08-07T19:49:33.796Z,74.10
2023-08-07T19:52:02.118Z,74.20
2023-08-07T19:54:29.112Z,74.50
2023-08-07T19:56:56.669Z,74.40
2023-08-07T19:59:25.458Z,74.60
2023-08-07T20:01:52.591Z,74.80
2023-08-07T20:04:19.678Z,74.90
2023-08-07T20:06:47.090Z,75.00
2023-08-07T20:09:14.195Z,74.80
2023-08-07T20:11:42.396Z,74.60
2023-08-07T20:14:09.490Z,75.00
2023-08-07T20:16:38.084Z,75.10
2023-08-07T20:19:05.233Z,75.00
2023-08-07T20:21:32.526Z,75.10
2023-08-07T20:23:59.653Z,75.50
2023-08-07T20:26:26.657Z,75.20
2023-08-07T20:28:56.218Z,75.30
2023-08-07T20:31:23.245Z,75.10
2023-08-07T20:33:51.808Z,75.70
2023-08-07T20:36:19.187Z,76.10
2023-08-07T20:38:46.193Z,76.00
2023-08-07T20:41:13.569Z,76.40
2023-08-07T20:43:40.655Z,76.40
2023-08-07T20:46:09.223Z,76.40
2023-08-07T20:48:36.776Z,76.80
2023-08-07T20:51:06.254Z,76.10
2023-08-07T20:53:33.520Z,76.20
2023-08-07T20:56:00.535Z,76.30
2023-08-07T20:58:27.645Z,76.60
2023-08-07T21:00:58.019Z,76.60
2023-08-07T21:03:25.395Z,76.40
2023-08-07T21:05:52.456Z,76.90
2023-08-07T21:08:20.977Z,77.10
2023-08-07T21:10:48.103Z,77.60
2023-08-07T21:13:15.228Z,77.10
2023-08-07T21:15:43.787Z,77.40
2023-08-07T21:18:11.069Z,77.00
2023-08-07T21:20:38.197Z,77.20
2023-08-07T21:23:05.709Z,77.00
2023-08-07T21:25:34.332Z,78.00
2023-08-07T21:28:01.240Z,78.20
2023-08-07T21:30:28.240Z,78.20
2023-08-07T21:32:55.479Z,78.10
2023-08-07T21:35:22.568Z,77.80
2023-08-07T21:37:49.840Z,78.20
2023-08-07T21:40:16.985Z,77.70
2023-08-07T21:42:45.721Z,78.40
2023-08-07T21:45:12.731Z,78.40
2023-08-07T21:47:44.384Z,78.00
2023-08-07T21:50:11.539Z,78.60
2023-08-07T21:52:38.721Z,78.50
2023-08-07T21:55:07.214Z,78.70
2023-08-07T21:57:34.624Z,78.00
2023-08-07T22:00:06.791Z,78.80
2023-08-07T22:02:33.879Z,78.80
2023-08-07T22:05:00.994Z,78.60
2023-08-07T22:07:28.372Z,79.00
2023-08-07T22:09:55.404Z,79.20
2023-08-07T22:12:22.430Z,78.70
2023-08-07T22:14:49.364Z,78.20
2023-08-07T22:17:18.165Z,78.40
2023-08-07T22:19:51.709Z,79.40
2023-08-07T22:22:30.212Z,79.10
2023-08-07T22:24:57.197Z,79.60
2023-08-07T22:27:24.209Z,79.40
2023-08-07T22:29:51.500Z,79.40
2023-08-07T22:32:20.093Z,79.50
2023-08-07T22:34:47.199Z,79.40
2023-08-07T22:37:14.220Z,79.70
2023-08-07T22:39:41.265Z,79.80
2023-08-07T22:42:08.692Z,79.90
2023-08-07T22:44:36.016Z,80.00
2023-08-07T22:47:03.515Z,79.90
2023-08-07T22:49:32.172Z,79.90
2023-08-07T22:51:59.301Z,80.10
2023-08-07T22:54:26.683Z,80.40
2023-08-07T22:56:53.756Z,80.20
2023-08-07T22:59:20.769Z,80.20
2023-08-07T23:01:47.949Z,80.40
2023-08-07T23:04:15.074Z,80.50
2023-08-07T23:06:43.576Z,79.70
2023-08-07T23:09:10.668Z,80.40
2023-08-07T23:11:37.878Z,80.30
2023-08-07T23:14:04.889Z,80.40
2023-08-07T23:16:31.833Z,80.70
2023-08-07T23:18:58.786Z,80.40
2023-08-07T23:21:25.809Z,80.60
2023-08-07T23:23:54.198Z,80.90
2023-08-07T23:26:21.256Z,80.80
2023-08-07T23:28:48.605Z,80.80
2023-08-07T23:31:16.607Z,80.90
2023-08-07T23:33:44.232Z,80.70
2023-08-07T23:36:11.420Z,80.80
2023-08-07T23:38:38.397Z,80.60
2023-08-07T23:41:06.784Z,81.00
2023-08-07T23:43:34.361Z,80.50
2023-08-07T23:46:02.256Z,80.30
2023-08-07T23:48:29.456Z,80.90
2023-08-07T23:50:56.798Z,80.60
2023-08-07T23:53:24.199Z,80.80
2023-08-07T23:55:51.209Z,81.10
2023-08-07T23:58:21.730Z,81.20
